createdAt,value
2018-01-20T00:00:56.301Z,0
2018-01-20T00:01:57.010Z,0
2018-01-20T00:02:57.666Z,0
2018-01-20T00:03:58.322Z,0
2018-01-20T00:04:58.985Z,0
2018-01-20T00:05:59.642Z,0
2018-01-20T00:07:00.335Z,0
2018-01-20T00:08:00.992Z,0
2018-01-20T00:09:01.685Z,0
2018-01-20T00:10:02.378Z,0
2018-01-20T00:11:03.035Z,0
2018-01-20T00:12:03.689Z,0
2018-01-20T00:13:04.345Z,0
2018-01-20T00:14:05.002Z,0
2018-01-20T00:15:05.658Z,0
2018-01-20T00:16:06.314Z,0
2018-01-20T00:17:06.971Z,0
2018-01-20T00:18:07.628Z,0
2018-01-20T00:19:08.285Z,0
2018-01-20T00:20:08.942Z,0
2018-01-20T00:21:09.599Z,0
2018-01-20T00:22:10.256Z,0
2018-01-20T00:23:10.914Z,0
2018-01-20T00:24:11.570Z,0
2018-01-20T00:25:12.227Z,0
2018-01-20T00:26:12.884Z,0
2018-01-20T00:27:13.540Z,0
2018-01-20T00:28:14.197Z,0
2018-01-20T00:29:14.853Z,0
2018-01-20T00:30:15.510Z,0
2018-01-20T00:31:16.167Z,0
2018-01-20T00:32:16.825Z,0
2018-01-20T00:33:17.482Z,0
2018-01-20T00:34:18.138Z,0
2018-01-20T00:35:18.795Z,0
2018-01-20T00:36:19.451Z,0
2018-01-20T00:37:20.107Z,0
2018-01-20T00:38:20.763Z,0
2018-01-20T00:39:21.419Z,0
2018-01-20T00:40:22.075Z,0
2018-01-20T00:41:22.734Z,0
2018-01-20T00:42:23.426Z,0
2018-01-20T00:43:24.083Z,0
2018-01-20T00:44:24.741Z,0
2018-01-20T00:45:25.400Z,0
2018-01-20T00:46:26.059Z,0
2018-01-20T00:47:26.717Z,0
2018-01-20T00:48:27.376Z,0
2018-01-20T00:49:28.033Z,0
2018-01-20T00:50:28.690Z,0
2018-01-20T00:51:29.347Z,0
2018-01-20T00:52:30.026Z,0
2018-01-20T00:53:30.663Z,0
2018-01-20T00:54:31.319Z,0
2018-01-20T00:55:31.977Z,0
2018-01-20T00:56:32.635Z,0
2018-01-20T00:57:33.292Z,0
2018-01-20T00:58:33.948Z,0
2018-01-20T00:59:34.606Z,0
2018-01-20T01:00:35.264Z,0
2018-01-20T01:01:35.923Z,0
2018-01-20T01:02:36.581Z,0
2018-01-20T01:03:37.238Z,0
2018-01-20T01:04:37.894Z,0
2018-01-20T01:05:38.551Z,0
2018-01-20T01:06:39.210Z,0
2018-01-20T01:07:39.866Z,0
2018-01-20T01:08:40.524Z,0
2018-01-20T01:09:41.182Z,0
2018-01-20T01:10:41.839Z,0
2018-01-20T01:11:42.497Z,0
2018-01-20T01:12:43.154Z,0
2018-01-20T01:13:43.813Z,0
2018-01-20T01:14:44.472Z,0
2018-01-20T01:15:45.128Z,0
2018-01-20T01:16:45.786Z,0
2018-01-20T01:17:46.443Z,0
2018-01-20T01:18:47.099Z,0
2018-01-20T01:19:47.757Z,0
2018-01-20T01:20:48.414Z,0
2018-01-20T01:21:49.073Z,0
2018-01-20T01:22:49.729Z,0
2018-01-20T01:23:50.389Z,0
2018-01-20T01:24:51.044Z,0
2018-01-20T01:25:51.703Z,0
2018-01-20T01:26:52.359Z,0
2018-01-20T01:27:53.017Z,0
2018-01-20T01:28:53.675Z,0
2018-01-20T01:29:54.332Z,0
2018-01-20T01:30:54.990Z,0
2018-01-20T01:31:55.647Z,0
2018-01-20T01:32:56.306Z,0
2018-01-20T01:33:56.961Z,0
2018-01-20T01:34:57.625Z,0
2018-01-20T01:35:58.277Z,0
2018-01-20T01:36:58.935Z,0
2018-01-20T01:37:59.591Z,0
2018-01-20T01:39:00.250Z,0
2018-01-20T01:40:00.907Z,0
2018-01-20T01:41:01.565Z,0
2018-01-20T01:42:02.222Z,0
2018-01-20T01:43:02.880Z,0
2018-01-20T01:44:03.538Z,0
2018-01-20T01:45:04.199Z,0
2018-01-20T01:46:04.891Z,0
2018-01-20T01:47:05.548Z,0
2018-01-20T01:48:06.240Z,0
2018-01-20T01:49:06.930Z,0
2018-01-20T01:50:07.587Z,0
2018-01-20T01:51:08.245Z,0
2018-01-20T01:52:08.902Z,0
2018-01-20T01:53:09.561Z,0
2018-01-20T01:54:10.218Z,0
2018-01-20T01:55:10.875Z,0
2018-01-20T01:56:11.532Z,0
2018-01-20T01:57:12.190Z,0
2018-01-20T01:58:12.849Z,0
2018-01-20T01:59:13.506Z,0
2018-01-20T02:00:14.164Z,0
2018-01-20T02:01:14.823Z,0
2018-01-20T02:02:15.479Z,0
2018-01-20T02:03:16.135Z,0
2018-01-20T02:04:16.793Z,0
2018-01-20T02:05:17.451Z,0
2018-01-20T02:06:18.108Z,0
2018-01-20T02:07:18.766Z,0
2018-01-20T02:08:19.424Z,0
2018-01-20T02:09:20.082Z,0
2018-01-20T02:10:20.737Z,0
2018-01-20T02:11:21.395Z,0
2018-01-20T02:12:22.088Z,0
2018-01-20T02:13:22.746Z,0
2018-01-20T02:14:23.401Z,0
2018-01-20T02:15:24.058Z,0
2018-01-20T02:16:24.715Z,0
2018-01-20T02:17:25.372Z,0
2018-01-20T02:18:26.030Z,0
2018-01-20T02:19:26.688Z,0
2018-01-20T02:20:27.346Z,0
2018-01-20T02:21:28.042Z,0
2018-01-20T02:22:28.699Z,0
2018-01-20T02:23:29.356Z,0
2018-01-20T02:24:30.014Z,0
2018-01-20T02:25:30.672Z,0
2018-01-20T02:26:31.329Z,0
2018-01-20T02:27:31.989Z,0
2018-01-20T02:28:32.697Z,0
2018-01-20T02:29:33.355Z,0
2018-01-20T02:30:34.013Z,0
2018-01-20T02:31:34.670Z,0
2018-01-20T02:32:35.326Z,0
2018-01-20T02:33:35.984Z,0
2018-01-20T02:34:36.642Z,0
2018-01-20T02:35:37.300Z,0
2018-01-20T02:36:37.957Z,0
2018-01-20T02:37:38.615Z,0
2018-01-20T02:38:39.272Z,0
2018-01-20T02:39:39.930Z,0
2018-01-20T02:40:40.586Z,0
2018-01-20T02:41:41.245Z,0
2018-01-20T02:42:41.905Z,0
2018-01-20T02:43:42.559Z,0
2018-01-20T02:44:43.217Z,0
2018-01-20T02:45:43.876Z,0
2018-01-20T02:46:44.533Z,0
2018-01-20T02:47:45.192Z,0
2018-01-20T02:48:45.849Z,0
2018-01-20T02:49:46.506Z,0
2018-01-20T02:50:47.163Z,0
2018-01-20T02:51:47.822Z,0
2018-01-20T02:52:48.480Z,0
2018-01-20T02:53:49.141Z,0
2018-01-20T02:54:49.796Z,0
2018-01-20T02:55:50.453Z,0
2018-01-20T02:56:51.111Z,0
2018-01-20T02:57:51.768Z,0
2018-01-20T02:58:52.426Z,0
2018-01-20T02:59:53.083Z,0
2018-01-20T03:00:53.742Z,0
2018-01-20T03:01:54.400Z,0
2018-01-20T03:02:55.060Z,0
2018-01-20T03:03:55.718Z,0
2018-01-20T03:04:56.412Z,0
2018-01-20T03:05:57.076Z,0
2018-01-20T03:06:57.727Z,0
2018-01-20T03:07:58.386Z,0
2018-01-20T03:08:59.045Z,0
2018-01-20T03:09:59.702Z,0
2018-01-20T03:11:00.362Z,0
2018-01-20T03:12:01.057Z,0
2018-01-20T03:13:01.715Z,0
2018-01-20T03:14:02.372Z,0
2018-01-20T03:15:03.030Z,0
2018-01-20T03:16:03.688Z,0
2018-01-20T03:17:04.346Z,0
2018-01-20T03:18:05.003Z,0
2018-01-20T03:19:05.662Z,0
2018-01-20T03:20:06.320Z,0
2018-01-20T03:21:06.977Z,0
2018-01-20T03:22:07.636Z,0
2018-01-20T03:23:08.294Z,0
2018-01-20T03:24:08.953Z,0
2018-01-20T03:25:09.610Z,0
2018-01-20T03:26:10.268Z,0
2018-01-20T03:27:10.924Z,0
2018-01-20T03:28:11.585Z,0
2018-01-20T03:29:12.239Z,0
2018-01-20T03:30:12.896Z,0
2018-01-20T03:31:13.555Z,0
2018-01-20T03:32:14.210Z,0
2018-01-20T03:33:14.868Z,0
2018-01-20T03:34:15.526Z,0
2018-01-20T03:35:16.182Z,0
2018-01-20T03:36:16.840Z,0
2018-01-20T03:37:17.498Z,0
2018-01-20T03:38:18.157Z,0
2018-01-20T03:39:18.813Z,0
2018-01-20T03:40:19.470Z,0
2018-01-20T03:41:20.127Z,0
2018-01-20T03:42:20.783Z,0
2018-01-20T03:43:21.442Z,0
2018-01-20T03:44:22.098Z,0
2018-01-20T03:45:22.754Z,0
2018-01-20T03:46:23.413Z,0
2018-01-20T03:47:24.108Z,0
2018-01-20T03:48:24.769Z,0
2018-01-20T03:49:25.422Z,0
2018-01-20T03:50:26.080Z,0
2018-01-20T03:51:26.737Z,0
2018-01-20T03:52:27.394Z,0
2018-01-20T03:53:28.051Z,0
2018-01-20T03:54:28.708Z,0
2018-01-20T03:55:29.366Z,0
2018-01-20T03:56:30.024Z,0
2018-01-20T03:57:30.681Z,0
2018-01-20T03:58:31.338Z,0
2018-01-20T03:59:31.995Z,0
2018-01-20T04:00:32.653Z,0
2018-01-20T04:01:33.312Z,0
2018-01-20T04:02:33.970Z,0
2018-01-20T04:03:34.626Z,0
2018-01-20T04:04:35.284Z,0
2018-01-20T04:05:35.942Z,0
2018-01-20T04:06:36.598Z,0
2018-01-20T04:07:37.256Z,0
2018-01-20T04:08:37.912Z,0
2018-01-20T04:09:38.571Z,0
2018-01-20T04:10:39.228Z,0
2018-01-20T04:11:39.886Z,0
2018-01-20T04:12:40.543Z,0
2018-01-20T04:13:41.237Z,0
2018-01-20T04:14:41.948Z,0
2018-01-20T04:15:42.553Z,0
2018-01-20T04:16:43.211Z,0
2018-01-20T04:17:43.871Z,0
2018-01-20T04:18:44.562Z,0
2018-01-20T04:19:45.220Z,0
2018-01-20T04:20:45.878Z,0
2018-01-20T04:21:46.536Z,0
2018-01-20T04:22:47.196Z,0
2018-01-20T04:23:47.850Z,0
2018-01-20T04:24:48.508Z,0
2018-01-20T04:25:49.200Z,0
2018-01-20T04:26:49.856Z,0
2018-01-20T04:27:50.511Z,0
2018-01-20T04:28:51.168Z,0
2018-01-20T04:29:51.824Z,0
2018-01-20T04:30:52.482Z,0
2018-01-20T04:31:53.141Z,0
2018-01-20T04:32:53.796Z,0
2018-01-20T04:33:54.487Z,0
2018-01-20T04:34:55.111Z,0
2018-01-20T04:35:55.804Z,0
2018-01-20T04:36:56.501Z,0
2018-01-20T04:37:57.152Z,0
2018-01-20T04:38:57.810Z,0
2018-01-20T04:39:58.504Z,0
2018-01-20T04:40:59.163Z,0
2018-01-20T04:41:59.821Z,0
2018-01-20T04:43:00.480Z,0
2018-01-20T04:44:01.139Z,0
2018-01-20T04:45:01.796Z,0
2018-01-20T04:46:02.453Z,0
2018-01-20T04:47:03.111Z,0
2018-01-20T04:48:03.796Z,0
2018-01-20T04:49:04.426Z,0
2018-01-20T04:50:05.084Z,0
2018-01-20T04:51:05.740Z,0
2018-01-20T04:52:06.398Z,0
2018-01-20T04:53:07.056Z,0
2018-01-20T04:54:07.715Z,0
2018-01-20T04:55:08.372Z,0
2018-01-20T04:56:09.027Z,0
2018-01-20T04:57:09.685Z,0
2018-01-20T04:58:10.343Z,0
2018-01-20T04:59:11.001Z,0
2018-01-20T05:00:11.659Z,0
2018-01-20T05:01:12.352Z,0
2018-01-20T05:02:13.044Z,0
2018-01-20T05:03:13.700Z,0
2018-01-20T05:04:14.355Z,0
2018-01-20T05:05:15.011Z,0
2018-01-20T05:06:15.667Z,0
2018-01-20T05:07:16.323Z,0
2018-01-20T05:08:16.979Z,0
2018-01-20T05:09:17.637Z,0
2018-01-20T05:10:18.294Z,0
2018-01-20T05:11:18.951Z,0
2018-01-20T05:12:19.607Z,0
2018-01-20T05:13:20.265Z,0
2018-01-20T05:14:20.922Z,0
2018-01-20T05:15:21.580Z,0
2018-01-20T05:16:22.237Z,0
2018-01-20T05:17:22.894Z,0
2018-01-20T05:18:23.550Z,0
2018-01-20T05:19:24.206Z,0
2018-01-20T05:20:24.912Z,0
2018-01-20T05:21:25.570Z,0
2018-01-20T05:22:26.225Z,0
2018-01-20T05:23:26.883Z,0
2018-01-20T05:24:27.539Z,0
2018-01-20T05:25:28.196Z,0
2018-01-20T05:26:28.852Z,0
2018-01-20T05:27:29.509Z,0
2018-01-20T05:28:30.167Z,0
2018-01-20T05:29:30.823Z,0
2018-01-20T05:30:31.481Z,0
2018-01-20T05:31:32.139Z,0
2018-01-20T05:32:32.796Z,0
2018-01-20T05:33:33.456Z,0
2018-01-20T05:34:34.109Z,0
2018-01-20T05:35:34.766Z,0
2018-01-20T05:36:35.423Z,0
2018-01-20T05:37:36.079Z,0
2018-01-20T05:38:36.738Z,0
2018-01-20T05:39:37.395Z,0
2018-01-20T05:40:38.051Z,0
2018-01-20T05:41:38.708Z,0
2018-01-20T05:42:39.365Z,0
2018-01-20T05:43:40.021Z,0
2018-01-20T05:44:40.676Z,0
2018-01-20T05:45:41.333Z,0
2018-01-20T05:46:41.989Z,0
2018-01-20T05:47:42.647Z,0
2018-01-20T05:48:43.300Z,0
2018-01-20T05:49:43.957Z,0
2018-01-20T05:50:44.614Z,0
2018-01-20T05:51:45.271Z,0
2018-01-20T05:52:45.928Z,0
2018-01-20T05:53:46.585Z,0
2018-01-20T05:54:47.243Z,0
2018-01-20T05:55:47.900Z,0
2018-01-20T05:56:48.558Z,0
2018-01-20T05:57:49.214Z,0
2018-01-20T05:58:49.878Z,0
2018-01-20T05:59:50.529Z,0
2018-01-20T06:00:51.274Z,0
2018-01-20T06:01:51.931Z,0
2018-01-20T06:02:52.588Z,0
2018-01-20T06:03:53.244Z,0
2018-01-20T06:04:53.901Z,0
2018-01-20T06:05:54.559Z,0
2018-01-20T06:06:55.216Z,0
2018-01-20T06:07:55.873Z,0
2018-01-20T06:08:56.529Z,0
2018-01-20T06:09:57.186Z,0
2018-01-20T06:10:57.844Z,0
2018-01-20T06:11:58.501Z,0
2018-01-20T06:12:59.165Z,0
2018-01-20T06:13:59.816Z,0
2018-01-20T06:15:00.471Z,0
2018-01-20T06:16:01.131Z,0
2018-01-20T06:17:01.824Z,0
2018-01-20T06:18:02.482Z,0
2018-01-20T06:19:03.140Z,0
2018-01-20T06:20:03.798Z,0
2018-01-20T06:21:04.460Z,0
2018-01-20T06:22:05.115Z,0
2018-01-20T06:23:05.775Z,0
2018-01-20T06:24:06.429Z,0
2018-01-20T06:25:07.086Z,0
2018-01-20T06:26:07.744Z,0
2018-01-20T06:27:08.402Z,0
2018-01-20T06:28:09.062Z,0
2018-01-20T06:29:09.789Z,0
2018-01-20T06:30:10.410Z,0
2018-01-20T06:31:11.071Z,0
2018-01-20T06:32:11.726Z,0
2018-01-20T06:33:12.383Z,0
2018-01-20T06:34:13.041Z,0
2018-01-20T06:35:13.699Z,0
2018-01-20T06:36:14.357Z,0
2018-01-20T06:37:15.016Z,0
2018-01-20T06:38:15.679Z,0
2018-01-20T06:39:16.330Z,0
2018-01-20T06:40:16.986Z,0
2018-01-20T06:41:17.649Z,0
2018-01-20T06:42:18.302Z,0
2018-01-20T06:43:18.995Z,0
2018-01-20T06:44:19.653Z,0
2018-01-20T06:45:20.347Z,0
2018-01-20T06:46:21.002Z,0
2018-01-20T06:47:21.659Z,0
2018-01-20T06:48:22.316Z,0
2018-01-20T06:49:22.973Z,0
2018-01-20T06:50:23.634Z,0
2018-01-20T06:51:24.288Z,0
2018-01-20T06:52:24.945Z,0
2018-01-20T06:53:25.602Z,0
2018-01-20T06:54:26.258Z,0
2018-01-20T06:55:26.914Z,0
2018-01-20T06:56:27.574Z,0
2018-01-20T06:57:28.229Z,0
2018-01-20T06:58:28.886Z,0
2018-01-20T06:59:29.543Z,0
2018-01-20T07:00:30.202Z,0
2018-01-20T07:01:30.858Z,0
2018-01-20T07:02:31.566Z,0
2018-01-20T07:03:32.172Z,0
2018-01-20T07:04:32.830Z,0
2018-01-20T07:05:33.487Z,0
2018-01-20T07:06:34.145Z,0
2018-01-20T07:07:34.804Z,0
2018-01-20T07:08:35.461Z,0
2018-01-20T07:09:36.120Z,0
2018-01-20T07:10:36.778Z,5
2018-01-20T07:11:37.437Z,5
2018-01-20T07:12:38.099Z,5
2018-01-20T07:13:38.759Z,5
2018-01-20T07:14:39.419Z,5
2018-01-20T07:15:40.079Z,5
2018-01-20T07:16:40.738Z,5
2018-01-20T07:17:41.397Z,5
2018-01-20T07:18:42.055Z,5
2018-01-20T07:19:42.712Z,5
2018-01-20T07:20:43.370Z,5
2018-01-20T07:21:44.029Z,5
2018-01-20T07:22:44.687Z,5
2018-01-20T07:23:45.345Z,11
2018-01-20T07:24:46.040Z,11
2018-01-20T07:25:46.700Z,11
2018-01-20T07:26:47.360Z,11
2018-01-20T07:27:48.018Z,11
2018-01-20T07:28:48.679Z,11
2018-01-20T07:29:49.345Z,11
2018-01-20T07:30:50.000Z,11
2018-01-20T07:31:50.661Z,11
2018-01-20T07:32:51.316Z,11
2018-01-20T07:33:51.976Z,16
2018-01-20T07:34:52.636Z,16
2018-01-20T07:35:53.298Z,16
2018-01-20T07:36:53.989Z,16
2018-01-20T07:37:54.649Z,16
2018-01-20T07:38:55.307Z,16
2018-01-20T07:39:55.967Z,16
2018-01-20T07:40:56.626Z,16
2018-01-20T07:41:57.285Z,16
2018-01-20T07:42:57.946Z,22
2018-01-20T07:43:58.643Z,22
2018-01-20T07:44:59.307Z,22
2018-01-20T07:45:59.966Z,22
2018-01-20T07:47:00.626Z,22
2018-01-20T07:48:01.287Z,22
2018-01-20T07:49:01.945Z,22
2018-01-20T07:50:02.604Z,22
2018-01-20T07:51:03.265Z,28
2018-01-20T07:52:03.925Z,28
2018-01-20T07:53:04.636Z,28
2018-01-20T07:54:05.249Z,28
2018-01-20T07:55:05.906Z,33
2018-01-20T07:56:06.567Z,33
2018-01-20T07:57:07.227Z,33
2018-01-20T07:58:07.888Z,39
2018-01-20T07:59:08.549Z,39
2018-01-20T08:00:09.212Z,33
2018-01-20T08:01:09.873Z,33
2018-01-20T08:02:10.535Z,39
2018-01-20T08:03:11.196Z,39
2018-01-20T08:04:11.857Z,39
2018-01-20T08:05:12.521Z,39
2018-01-20T08:06:13.179Z,39
2018-01-20T08:07:13.839Z,39
2018-01-20T08:08:14.538Z,39
2018-01-20T08:09:15.232Z,39
2018-01-20T08:10:15.891Z,39
2018-01-20T08:11:16.553Z,39
2018-01-20T08:12:17.264Z,39
2018-01-20T08:13:17.927Z,39
2018-01-20T08:14:18.588Z,39
2018-01-20T08:15:19.249Z,39
2018-01-20T08:16:19.910Z,39
2018-01-20T08:17:20.573Z,39
2018-01-20T08:18:21.235Z,39
2018-01-20T08:19:21.951Z,39
2018-01-20T08:20:22.585Z,39
2018-01-20T08:21:23.246Z,39
2018-01-20T08:22:23.907Z,39
2018-01-20T08:23:24.568Z,39
2018-01-20T08:24:25.227Z,39
2018-01-20T08:25:25.889Z,45
2018-01-20T08:26:26.548Z,50
2018-01-20T08:27:27.210Z,56
2018-01-20T08:28:27.871Z,61
2018-01-20T08:29:28.531Z,61
2018-01-20T08:30:29.193Z,61
2018-01-20T08:31:29.854Z,61
2018-01-20T08:32:30.515Z,61
2018-01-20T08:33:31.176Z,61
2018-01-20T08:34:31.838Z,61
2018-01-20T08:35:32.499Z,61
2018-01-20T08:36:33.160Z,61
2018-01-20T08:37:33.820Z,61
2018-01-20T08:38:34.481Z,61
2018-01-20T08:39:35.142Z,67
2018-01-20T08:40:35.804Z,67
2018-01-20T08:41:36.466Z,73
2018-01-20T08:42:37.130Z,67
2018-01-20T08:43:37.790Z,67
2018-01-20T08:44:38.450Z,67
2018-01-20T08:45:39.111Z,61
2018-01-20T08:46:39.773Z,67
2018-01-20T08:47:40.436Z,73
2018-01-20T08:48:41.095Z,78
2018-01-20T08:49:41.757Z,84
2018-01-20T08:50:42.418Z,90
2018-01-20T08:51:43.079Z,90
2018-01-20T08:52:43.742Z,84
2018-01-20T08:53:44.404Z,73
2018-01-20T08:54:45.067Z,73
2018-01-20T08:55:45.728Z,73
2018-01-20T08:56:46.390Z,67
2018-01-20T08:57:47.103Z,61
2018-01-20T08:58:47.768Z,56
2018-01-20T08:59:48.428Z,56
2018-01-20T09:00:49.090Z,56
2018-01-20T09:01:49.787Z,56
2018-01-20T09:02:50.505Z,56
2018-01-20T09:03:51.145Z,50
2018-01-20T09:04:51.807Z,50
2018-01-20T09:05:52.468Z,56
2018-01-20T09:06:53.132Z,56
2018-01-20T09:07:53.795Z,61
2018-01-20T09:08:54.457Z,61
2018-01-20T09:09:55.120Z,61
2018-01-20T09:10:55.785Z,56
2018-01-20T09:11:56.444Z,56
2018-01-20T09:12:57.105Z,56
2018-01-20T09:13:57.766Z,56
2018-01-20T09:14:58.428Z,56
2018-01-20T09:15:59.090Z,61
2018-01-20T09:16:59.754Z,61
2018-01-20T09:18:00.413Z,61
2018-01-20T09:19:01.077Z,61
2018-01-20T09:20:01.740Z,61
2018-01-20T09:21:02.402Z,61
2018-01-20T09:22:03.100Z,67
2018-01-20T09:23:03.763Z,67
2018-01-20T09:24:04.444Z,67
2018-01-20T09:25:05.085Z,67
2018-01-20T09:26:05.746Z,67
2018-01-20T09:27:06.408Z,73
2018-01-20T09:28:07.070Z,73
2018-01-20T09:29:07.731Z,67
2018-01-20T09:30:08.392Z,67
2018-01-20T09:31:09.059Z,67
2018-01-20T09:32:09.717Z,67
2018-01-20T09:33:10.383Z,67
2018-01-20T09:34:11.080Z,67
2018-01-20T09:35:11.742Z,67
2018-01-20T09:36:12.404Z,67
2018-01-20T09:37:13.065Z,67
2018-01-20T09:38:13.728Z,67
2018-01-20T09:39:14.390Z,67
2018-01-20T09:40:15.052Z,61
2018-01-20T09:41:15.713Z,61
2018-01-20T09:42:16.375Z,67
2018-01-20T09:43:17.036Z,67
2018-01-20T09:44:17.697Z,67
2018-01-20T09:45:18.363Z,78
2018-01-20T09:46:19.057Z,90
2018-01-20T09:47:19.723Z,95
2018-01-20T09:48:20.421Z,90
2018-01-20T09:49:21.122Z,78
2018-01-20T09:50:21.785Z,73
2018-01-20T09:51:22.448Z,78
2018-01-20T09:52:23.110Z,73
2018-01-20T09:53:23.774Z,78
2018-01-20T09:54:24.471Z,73
2018-01-20T09:55:25.133Z,78
2018-01-20T09:56:25.829Z,95
2018-01-20T09:57:26.493Z,90
2018-01-20T09:58:27.157Z,84
2018-01-20T09:59:27.818Z,84
2018-01-20T10:00:28.480Z,95
2018-01-20T10:01:29.143Z,106
2018-01-20T10:02:29.806Z,112
2018-01-20T10:03:30.471Z,101
2018-01-20T10:04:31.134Z,101
2018-01-20T10:05:31.798Z,95
2018-01-20T10:06:32.457Z,95
2018-01-20T10:07:33.120Z,90
2018-01-20T10:08:33.782Z,95
2018-01-20T10:09:34.446Z,101
2018-01-20T10:10:35.109Z,101
2018-01-20T10:11:35.771Z,90
2018-01-20T10:12:36.432Z,84
2018-01-20T10:13:37.095Z,78
2018-01-20T10:14:37.759Z,84
2018-01-20T10:15:38.423Z,90
2018-01-20T10:16:39.088Z,90
2018-01-20T10:17:39.784Z,90
2018-01-20T10:18:40.448Z,101
2018-01-20T10:19:41.110Z,95
2018-01-20T10:20:41.775Z,101
2018-01-20T10:21:42.438Z,101
2018-01-20T10:22:43.103Z,101
2018-01-20T10:23:43.767Z,112
2018-01-20T10:24:44.431Z,112
2018-01-20T10:25:45.096Z,112
2018-01-20T10:26:45.766Z,106
2018-01-20T10:27:46.424Z,112
2018-01-20T10:28:47.127Z,112
2018-01-20T10:29:47.826Z,123
2018-01-20T10:30:48.489Z,123
2018-01-20T10:31:49.153Z,123
2018-01-20T10:32:49.821Z,112
2018-01-20T10:33:50.484Z,101
2018-01-20T10:34:51.147Z,101
2018-01-20T10:35:51.811Z,84
2018-01-20T10:36:52.474Z,90
2018-01-20T10:37:53.138Z,95
2018-01-20T10:38:53.805Z,101
2018-01-20T10:39:54.469Z,101
2018-01-20T10:40:55.135Z,101
2018-01-20T10:41:55.800Z,101
2018-01-20T10:42:56.464Z,112
2018-01-20T10:43:57.133Z,106
2018-01-20T10:44:57.791Z,95
2018-01-20T10:45:58.455Z,101
2018-01-20T10:46:59.120Z,112
2018-01-20T10:47:59.785Z,112
2018-01-20T10:49:00.450Z,118
2018-01-20T10:50:01.114Z,112
2018-01-20T10:51:01.829Z,112
2018-01-20T10:52:02.493Z,112
2018-01-20T10:53:03.157Z,101
2018-01-20T10:54:03.822Z,95
2018-01-20T10:55:04.487Z,90
2018-01-20T10:56:05.151Z,95
2018-01-20T10:57:05.814Z,95
2018-01-20T10:58:06.480Z,112
2018-01-20T10:59:07.145Z,112
2018-01-20T11:00:07.809Z,101
2018-01-20T11:01:08.472Z,90
2018-01-20T11:02:09.135Z,84
2018-01-20T11:03:09.798Z,78
2018-01-20T11:04:10.461Z,73
2018-01-20T11:05:11.126Z,73
2018-01-20T11:06:11.791Z,67
2018-01-20T11:07:12.454Z,78
2018-01-20T11:08:13.117Z,90
2018-01-20T11:09:13.780Z,78
2018-01-20T11:10:14.445Z,78
2018-01-20T11:11:15.110Z,78
2018-01-20T11:12:15.771Z,73
2018-01-20T11:13:16.436Z,73
2018-01-20T11:14:17.149Z,78
2018-01-20T11:15:17.848Z,78
2018-01-20T11:16:18.512Z,73
2018-01-20T11:17:19.176Z,67
2018-01-20T11:18:19.838Z,61
2018-01-20T11:19:20.501Z,61
2018-01-20T11:20:21.165Z,67
2018-01-20T11:21:21.828Z,73
2018-01-20T11:22:22.493Z,78
2018-01-20T11:23:23.153Z,84
2018-01-20T11:24:23.815Z,95
2018-01-20T11:25:24.478Z,101
2018-01-20T11:26:25.140Z,95
2018-01-20T11:27:25.801Z,95
2018-01-20T11:28:26.466Z,78
2018-01-20T11:29:27.132Z,73
2018-01-20T11:30:27.793Z,67
2018-01-20T11:31:28.454Z,67
2018-01-20T11:32:29.118Z,73
2018-01-20T11:33:29.814Z,90
2018-01-20T11:34:30.477Z,95
2018-01-20T11:35:31.140Z,95
2018-01-20T11:36:31.805Z,101
2018-01-20T11:37:32.468Z,106
2018-01-20T11:38:33.131Z,112
2018-01-20T11:39:33.831Z,118
2018-01-20T11:40:34.494Z,118
2018-01-20T11:41:35.158Z,106
2018-01-20T11:42:35.858Z,95
2018-01-20T11:43:36.523Z,95
2018-01-20T11:44:37.238Z,95
2018-01-20T11:45:37.901Z,112
2018-01-20T11:46:38.566Z,106
2018-01-20T11:47:39.230Z,112
2018-01-20T11:48:39.892Z,106
2018-01-20T11:49:40.557Z,101
2018-01-20T11:50:41.220Z,106
2018-01-20T11:51:41.885Z,118
2018-01-20T11:52:42.551Z,118
2018-01-20T11:53:43.217Z,101
2018-01-20T11:54:43.879Z,106
2018-01-20T11:55:44.541Z,95
2018-01-20T11:56:45.206Z,101
2018-01-20T11:57:45.869Z,95
2018-01-20T11:58:46.531Z,95
2018-01-20T11:59:47.495Z,112
2018-01-20T12:00:48.160Z,123
2018-01-20T12:01:48.829Z,135
2018-01-20T12:02:49.490Z,135
2018-01-20T12:03:50.153Z,135
2018-01-20T12:04:50.818Z,135
2018-01-20T12:05:51.484Z,140
2018-01-20T12:06:52.147Z,123
2018-01-20T12:07:52.812Z,118
2018-01-20T12:08:53.475Z,112
2018-01-20T12:09:54.141Z,101
2018-01-20T12:10:54.809Z,101
2018-01-20T12:11:55.472Z,101
2018-01-20T12:12:56.135Z,101
2018-01-20T12:13:56.800Z,101
2018-01-20T12:14:57.464Z,101
2018-01-20T12:15:58.128Z,95
2018-01-20T12:16:58.794Z,90
2018-01-20T12:17:59.458Z,84
2018-01-20T12:19:00.124Z,84
2018-01-20T12:20:00.822Z,90
2018-01-20T12:21:01.488Z,84
2018-01-20T12:22:02.153Z,78
2018-01-20T12:23:02.816Z,78
2018-01-20T12:24:03.480Z,73
2018-01-20T12:25:04.179Z,61
2018-01-20T12:26:04.893Z,61
2018-01-20T12:27:05.556Z,67
2018-01-20T12:28:06.219Z,73
2018-01-20T12:29:06.882Z,73
2018-01-20T12:30:07.547Z,67
2018-01-20T12:31:08.210Z,73
2018-01-20T12:32:08.876Z,78
2018-01-20T12:33:09.542Z,84
2018-01-20T12:34:10.245Z,90
2018-01-20T12:35:10.908Z,95
2018-01-20T12:36:11.571Z,95
2018-01-20T12:37:12.235Z,95
2018-01-20T12:38:12.898Z,90
2018-01-20T12:39:13.563Z,90
2018-01-20T12:40:14.227Z,90
2018-01-20T12:41:14.889Z,90
2018-01-20T12:42:15.552Z,90
2018-01-20T12:43:16.216Z,78
2018-01-20T12:44:16.880Z,73
2018-01-20T12:45:17.546Z,67
2018-01-20T12:46:18.209Z,67
2018-01-20T12:47:18.871Z,67
2018-01-20T12:48:19.535Z,73
2018-01-20T12:49:20.200Z,84
2018-01-20T12:50:20.900Z,95
2018-01-20T12:51:21.563Z,95
2018-01-20T12:52:22.226Z,95
2018-01-20T12:53:22.890Z,90
2018-01-20T12:54:23.559Z,84
2018-01-20T12:55:24.218Z,84
2018-01-20T12:56:24.916Z,90
2018-01-20T12:57:25.578Z,78
2018-01-20T12:58:26.242Z,73
2018-01-20T12:59:26.905Z,73
2018-01-20T13:00:27.572Z,73
2018-01-20T13:01:28.271Z,73
2018-01-20T13:02:28.938Z,73
2018-01-20T13:03:29.602Z,73
2018-01-20T13:04:30.264Z,73
2018-01-20T13:05:30.965Z,73
2018-01-20T13:06:31.630Z,78
2018-01-20T13:07:32.292Z,84
2018-01-20T13:08:32.955Z,84
2018-01-20T13:09:33.618Z,78
2018-01-20T13:10:34.282Z,73
2018-01-20T13:11:34.947Z,73
2018-01-20T13:12:35.607Z,67
2018-01-20T13:13:36.272Z,73
2018-01-20T13:14:36.934Z,78
2018-01-20T13:15:37.598Z,78
2018-01-20T13:16:38.263Z,73
2018-01-20T13:17:38.929Z,73
2018-01-20T13:18:39.596Z,67
2018-01-20T13:19:40.254Z,67
2018-01-20T13:20:40.918Z,61
2018-01-20T13:21:41.581Z,67
2018-01-20T13:22:42.246Z,67
2018-01-20T13:23:42.909Z,61
2018-01-20T13:24:43.571Z,67
2018-01-20T13:25:44.235Z,73
2018-01-20T13:26:44.898Z,67
2018-01-20T13:27:45.562Z,61
2018-01-20T13:28:46.228Z,61
2018-01-20T13:29:46.892Z,67
2018-01-20T13:30:47.555Z,73
2018-01-20T13:31:48.221Z,78
2018-01-20T13:32:48.881Z,84
2018-01-20T13:33:49.544Z,78
2018-01-20T13:34:50.246Z,73
2018-01-20T13:35:50.908Z,73
2018-01-20T13:36:51.574Z,73
2018-01-20T13:37:52.245Z,67
2018-01-20T13:38:52.906Z,61
2018-01-20T13:39:53.572Z,56
2018-01-20T13:40:54.288Z,56
2018-01-20T13:41:54.979Z,56
2018-01-20T13:42:55.617Z,56
2018-01-20T13:43:56.280Z,56
2018-01-20T13:44:56.943Z,56
2018-01-20T13:45:57.606Z,56
2018-01-20T13:46:58.269Z,56
2018-01-20T13:47:58.932Z,50
2018-01-20T13:48:59.596Z,50
2018-01-20T13:50:00.263Z,56
2018-01-20T13:51:00.926Z,61
2018-01-20T13:52:01.589Z,56
2018-01-20T13:53:02.252Z,61
2018-01-20T13:54:02.916Z,67
2018-01-20T13:55:03.580Z,67
2018-01-20T13:56:04.243Z,61
2018-01-20T13:57:04.906Z,61
2018-01-20T13:58:05.604Z,61
2018-01-20T13:59:06.268Z,61
2018-01-20T14:00:06.933Z,61
2018-01-20T14:01:07.593Z,61
2018-01-20T14:02:08.257Z,61
2018-01-20T14:03:08.924Z,61
2018-01-20T14:04:09.588Z,61
2018-01-20T14:05:10.293Z,61
2018-01-20T14:06:10.992Z,61
2018-01-20T14:07:11.656Z,56
2018-01-20T14:08:12.320Z,50
2018-01-20T14:09:12.984Z,50
2018-01-20T14:10:13.647Z,56
2018-01-20T14:11:14.328Z,61
2018-01-20T14:12:14.974Z,61
2018-01-20T14:13:15.636Z,56
2018-01-20T14:14:16.299Z,56
2018-01-20T14:15:16.963Z,50
2018-01-20T14:16:17.631Z,56
2018-01-20T14:17:18.294Z,56
2018-01-20T14:18:18.956Z,50
2018-01-20T14:19:19.618Z,50
2018-01-20T14:20:20.285Z,50
2018-01-20T14:21:20.979Z,50
2018-01-20T14:22:21.643Z,50
2018-01-20T14:23:22.307Z,50
2018-01-20T14:24:22.971Z,45
2018-01-20T14:25:23.634Z,50
2018-01-20T14:26:24.298Z,45
2018-01-20T14:27:24.961Z,39
2018-01-20T14:28:25.623Z,39
2018-01-20T14:29:26.288Z,39
2018-01-20T14:30:26.953Z,45
2018-01-20T14:31:27.618Z,45
2018-01-20T14:32:28.282Z,45
2018-01-20T14:33:28.952Z,45
2018-01-20T14:34:29.608Z,39
2018-01-20T14:35:30.276Z,39
2018-01-20T14:36:30.937Z,39
2018-01-20T14:37:31.599Z,45
2018-01-20T14:38:32.262Z,39